Time;durP1;ratioP1;P1;durP2;ratioP2;P2;SDS_P1;SDS_P2;PMS_P1;PMS_P2;Temp;Humidity;BMP_temperature;BMP_pressure;BME280_temperature;BME280_humidity;BME280_pressure;Samples;Min_cycle;Max_cycle;Signal;HPM_P1;HPM_P2
2022/12/07 00:00:25;;;;;;;12.60;6.00;;;;;;;;;;10444475;28;20028;-63
2022/12/07 00:05:26;;;;;;;7.95;6.28;;;;;;;;;;10448072;28;20032;-63
2022/12/07 00:10:26;;;;;;;11.00;6.75;;;;;;;;;;10446987;28;20028;-62
2022/12/07 00:15:27;;;;;;;7.13;6.18;;;;;;;;;;10442397;28;20029;-62
2022/12/07 00:20:28;;;;;;;9.73;6.68;;;;;;;;;;10438117;28;20035;-61
2022/12/07 00:25:30;;;;;;;15.77;6.45;;;;;;;;;;10442997;28;20029;-62
2022/12/07 00:30:30;;;;;;;9.43;6.22;;;;;;;;;;10443580;28;20052;-62
2022/12/07 00:35:31;;;;;;;7.18;5.70;;;;;;;;;;10454742;28;20037;-61
2022/12/07 00:40:32;;;;;;;9.57;6.05;;;;;;;;;;10455110;28;20036;-61
2022/12/07 00:45:32;;;;;;;9.93;6.38;;;;;;;;;;10453859;28;20033;-60
2022/12/07 00:50:33;;;;;;;11.65;6.05;;;;;;;;;;10454952;28;20044;-64
2022/12/07 00:55:37;;;;;;;7.38;5.70;;;;;;;;;;10454726;28;20033;-60
2022/12/07 01:00:40;;;;;;;9.00;5.93;;;;;;;;;;10453662;28;20446;-60
2022/12/07 01:05:48;;;;;;;10.98;6.00;;;;;;;;;;10454258;28;20028;-61
2022/12/07 01:10:49;;;;;;;10.05;6.00;;;;;;;;;;10436257;28;20409;-60
2022/12/07 01:15:49;;;;;;;7.05;6.18;;;;;;;;;;10453650;28;20061;-60
2022/12/07 01:21:10;;;;;;;7.30;5.85;;;;;;;;;;10454447;28;20025;-60
2022/12/07 01:26:14;;;;;;;9.20;6.68;;;;;;;;;;10445995;28;20261;-60
2022/12/07 01:31:21;;;;;;;9.40;7.07;;;;;;;;;;10438283;28;20065;-60
2022/12/07 01:36:25;;;;;;;8.05;6.13;;;;;;;;;;10442348;28;20032;-59
2022/12/07 01:41:30;;;;;;;8.52;6.00;;;;;;;;;;10451680;28;20025;-60
2022/12/07 01:46:30;;;;;;;8.77;6.43;;;;;;;;;;10442169;28;20579;-61
2022/12/07 01:51:31;;;;;;;9.20;6.18;;;;;;;;;;10451576;28;20040;-60
2022/12/07 01:56:32;;;;;;;8.13;6.20;;;;;;;;;;10452235;28;20029;-61
2022/12/07 02:01:32;;;;;;;8.73;5.78;;;;;;;;;;10441108;28;20028;-60
2022/12/07 02:06:35;;;;;;;10.10;5.82;;;;;;;;;;10451086;28;20111;-60
2022/12/07 02:11:36;;;;;;;8.50;5.70;;;;;;;;;;10433565;28;20119;-61
2022/12/07 02:17:01;;;;;;;6.53;5.32;;;;;;;;;;10433945;28;20031;-61
2022/12/07 02:22:33;;;;;;;8.95;5.80;;;;;;;;;;10449865;28;20040;-60
2022/12/07 02:27:38;;;;;;;6.05;5.45;;;;;;;;;;10433517;28;20045;-60
2022/12/07 02:33:05;;;;;;;7.10;5.45;;;;;;;;;;10432471;28;20041;-60
2022/12/07 02:38:34;;;;;;;7.55;5.45;;;;;;;;;;10439512;28;20488;-61
2022/12/07 02:43:43;;;;;;;7.63;5.47;;;;;;;;;;10424117;28;20028;-61
2022/12/07 02:48:45;;;;;;;7.57;5.40;;;;;;;;;;10449897;28;20025;-60
2022/12/07 02:53:45;;;;;;;6.40;4.93;;;;;;;;;;10413610;28;20041;-60
2022/12/07 02:59:16;;;;;;;5.85;5.20;;;;;;;;;;10450095;28;20040;-60
2022/12/07 03:04:55;;;;;;;9.00;5.75;;;;;;;;;;10449813;28;20507;-60
2022/12/07 03:10:15;;;;;;;7.07;5.68;;;;;;;;;;10445386;28;20072;-60
2022/12/07 03:15:26;;;;;;;10.13;6.10;;;;;;;;;;10433313;28;20029;-60
2022/12/07 03:20:29;;;;;;;7.82;5.55;;;;;;;;;;10448925;28;20033;-61
2022/12/07 03:25:29;;;;;;;8.30;5.03;;;;;;;;;;10430640;28;20067;-61
2022/12/07 03:30:39;;;;;;;7.05;5.82;;;;;;;;;;10447755;28;20052;-60
2022/12/07 03:35:52;;;;;;;6.70;5.40;;;;;;;;;;10419993;28;20059;-61
2022/12/07 03:41:09;;;;;;;9.75;5.05;;;;;;;;;;10430199;28;20021;-62
2022/12/07 03:46:15;;;;;;;6.53;5.30;;;;;;;;;;10447865;28;20495;-61
2022/12/07 03:51:28;;;;;;;7.50;5.57;;;;;;;;;;10447032;28;20044;-61
2022/12/07 03:56:29;;;;;;;5.85;4.95;;;;;;;;;;10430596;28;20137;-61
2022/12/07 04:01:31;;;;;;;6.78;5.20;;;;;;;;;;10446993;28;20036;-60
2022/12/07 04:06:32;;;;;;;6.78;5.20;;;;;;;;;;10436419;28;20419;-61
2022/12/07 04:11:33;;;;;;;6.25;5.22;;;;;;;;;;10456381;28;20025;-61
2022/12/07 04:16:33;;;;;;;8.77;5.10;;;;;;;;;;10456114;28;20038;-61
2022/12/07 04:21:34;;;;;;;7.28;5.60;;;;;;;;;;10455901;28;20029;-61
2022/12/07 04:26:35;;;;;;;4.97;4.47;;;;;;;;;;10455316;28;20429;-60
2022/12/07 04:31:36;;;;;;;8.23;5.15;;;;;;;;;;10455788;28;20476;-61
2022/12/07 04:36:38;;;;;;;5.57;4.70;;;;;;;;;;10444316;28;20032;-60
2022/12/07 04:41:38;;;;;;;5.10;4.57;;;;;;;;;;10455983;28;20032;-60
2022/12/07 04:46:39;;;;;;;6.50;5.03;;;;;;;;;;10455749;28;20025;-60
2022/12/07 04:51:41;;;;;;;7.45;4.80;;;;;;;;;;10454474;28;20127;-61
2022/12/07 04:56:42;;;;;;;5.93;5.22;;;;;;;;;;10453017;28;20025;-60
2022/12/07 05:01:43;;;;;;;5.63;5.03;;;;;;;;;;10454274;28;20549;-61
2022/12/07 05:06:44;;;;;;;5.05;4.55;;;;;;;;;;10452936;28;20029;-61
2022/12/07 05:11:44;;;;;;;5.22;4.65;;;;;;;;;;10453470;28;20499;-60
2022/12/07 05:16:49;;;;;;;6.38;4.93;;;;;;;;;;10452129;28;20036;-60
2022/12/07 05:21:50;;;;;;;5.38;4.43;;;;;;;;;;10453090;28;20021;-60
2022/12/07 05:26:50;;;;;;;5.65;4.53;;;;;;;;;;10453367;28;20045;-61
2022/12/07 05:31:51;;;;;;;4.80;4.07;;;;;;;;;;10448385;28;20472;-60
2022/12/07 05:36:51;;;;;;;5.70;5.10;;;;;;;;;;10450543;28;20384;-61
2022/12/07 05:47:12;;;;;;;;;;;;;;;;;;10433948;28;20052;-61
2022/12/07 05:52:12;;;;;;;16.70;5.70;;;;;;;;;;10440154;28;19962;-61
2022/12/07 05:57:13;;;;;;;8.48;5.25;;;;;;;;;;10450997;28;20033;-60
2022/12/07 06:02:15;;;;;;;8.85;6.00;;;;;;;;;;10441689;28;20040;-60
2022/12/07 06:07:16;;;;;;;7.13;5.40;;;;;;;;;;10444878;28;20075;-61
2022/12/07 06:12:35;;;;;;;8.23;5.68;;;;;;;;;;10446382;28;20060;-59
2022/12/07 06:17:36;;;;;;;8.13;5.30;;;;;;;;;;10444061;28;20083;-61
2022/12/07 06:22:37;;;;;;;13.88;6.28;;;;;;;;;;10439961;28;20374;-61
2022/12/07 06:27:37;;;;;;;9.23;5.78;;;;;;;;;;10439975;28;20037;-61
2022/12/07 06:32:38;;;;;;;12.63;5.55;;;;;;;;;;10444729;28;20196;-61
2022/12/07 06:37:38;;;;;;;8.25;5.45;;;;;;;;;;10450121;28;20029;-61
2022/12/07 06:42:39;;;;;;;7.53;5.35;;;;;;;;;;10445247;28;20469;-60
2022/12/07 06:47:39;;;;;;;6.57;5.13;;;;;;;;;;10442033;28;20021;-60
2022/12/07 06:52:40;;;;;;;8.32;5.57;;;;;;;;;;10448932;28;20029;-61
2022/12/07 06:57:41;;;;;;;8.65;4.88;;;;;;;;;;10449542;28;20071;-61
2022/12/07 07:02:41;;;;;;;5.32;4.72;;;;;;;;;;10448460;28;20029;-61
2022/12/07 07:07:42;;;;;;;7.10;5.05;;;;;;;;;;10448088;28;20017;-60
2022/12/07 07:12:42;;;;;;;6.32;4.53;;;;;;;;;;10443788;28;20052;-60
2022/12/07 07:17:43;;;;;;;10.20;4.90;;;;;;;;;;10445311;28;20288;-61
2022/12/07 07:22:44;;;;;;;9.43;5.53;;;;;;;;;;10446839;28;20036;-60
2022/12/07 07:27:44;;;;;;;12.07;4.75;;;;;;;;;;10434791;28;20516;-61
2022/12/07 07:32:45;;;;;;;11.88;4.75;;;;;;;;;;10444745;28;20468;-61
2022/12/07 07:37:45;;;;;;;14.10;4.95;;;;;;;;;;10441158;28;20369;-61
2022/12/07 07:42:54;;;;;;;6.30;4.43;;;;;;;;;;10448133;28;20475;-61
2022/12/07 07:47:54;;;;;;;9.57;4.70;;;;;;;;;;10447540;28;20025;-61
2022/12/07 07:52:57;;;;;;;7.30;4.30;;;;;;;;;;10448242;28;20111;-61
2022/12/07 07:57:58;;;;;;;7.90;4.20;;;;;;;;;;10447892;28;20058;-62
2022/12/07 08:02:59;;;;;;;8.50;4.47;;;;;;;;;;10445698;28;20094;-60
2022/12/07 08:07:59;;;;;;;11.95;4.32;;;;;;;;;;10447232;28;20423;-61
2022/12/07 08:13:13;;;;;;;5.45;4.05;;;;;;;;;;10445527;28;20032;-60
2022/12/07 08:18:15;;;;;;;12.20;4.10;;;;;;;;;;10426642;28;20029;-61
2022/12/07 08:23:16;;;;;;;7.15;4.07;;;;;;;;;;10427164;28;20044;-61
2022/12/07 08:28:17;;;;;;;8.90;4.22;;;;;;;;;;10428172;28;20056;-60
2022/12/07 08:33:17;;;;;;;11.18;4.15;;;;;;;;;;10446539;28;20033;-60
2022/12/07 08:38:18;;;;;;;6.93;4.60;;;;;;;;;;10441091;28;20037;-60
2022/12/07 08:43:18;;;;;;;6.05;4.60;;;;;;;;;;10446949;28;20036;-60
2022/12/07 08:48:21;;;;;;;6.07;4.68;;;;;;;;;;10447086;28;20036;-62
2022/12/07 08:53:22;;;;;;;8.35;4.60;;;;;;;;;;10452731;28;20036;-60
2022/12/07 08:58:23;;;;;;;6.60;4.35;;;;;;;;;;10435707;28;20369;-59
2022/12/07 09:03:23;;;;;;;6.18;4.30;;;;;;;;;;10452609;28;20431;-60
2022/12/07 09:08:32;;;;;;;7.38;4.47;;;;;;;;;;10452727;28;21561;-61
2022/12/07 09:13:33;;;;;;;6.68;4.25;;;;;;;;;;10433144;28;20036;-61
2022/12/07 09:18:34;;;;;;;6.43;4.15;;;;;;;;;;10451858;28;20043;-60
2022/12/07 09:23:34;;;;;;;6.13;4.07;;;;;;;;;;10452549;28;20032;-61
2022/12/07 09:28:35;;;;;;;7.28;4.50;;;;;;;;;;10430396;28;20526;-60
2022/12/07 09:33:35;;;;;;;10.60;4.07;;;;;;;;;;10431030;28;20045;-60
2022/12/07 09:38:36;;;;;;;5.47;4.43;;;;;;;;;;10441249;28;20136;-61
2022/12/07 09:43:39;;;;;;;10.40;4.47;;;;;;;;;;10441431;28;20040;-61
2022/12/07 09:48:40;;;;;;;5.60;3.83;;;;;;;;;;10443448;28;20025;-60
2022/12/07 09:53:42;;;;;;;6.60;4.10;;;;;;;;;;10444253;28;20103;-61
2022/12/07 09:58:44;;;;;;;5.25;4.05;;;;;;;;;;10442952;28;20033;-61
2022/12/07 10:04:25;;;;;;;8.93;4.28;;;;;;;;;;10438742;28;20396;-60
2022/12/07 10:09:28;;;;;;;6.75;4.18;;;;;;;;;;10432819;28;20504;-61
2022/12/07 10:14:33;;;;;;;5.53;4.20;;;;;;;;;;10444937;28;20499;-60
2022/12/07 10:19:34;;;;;;;6.70;4.20;;;;;;;;;;10425820;28;20116;-61
2022/12/07 10:24:34;;;;;;;6.00;3.50;;;;;;;;;;10442970;28;20029;-61
2022/12/07 10:29:38;;;;;;;6.13;4.13;;;;;;;;;;10426037;28;20040;-60
2022/12/07 10:34:38;;;;;;;8.50;4.22;;;;;;;;;;10413862;28;20054;-60
2022/12/07 10:39:54;;;;;;;8.77;4.32;;;;;;;;;;10434357;28;20029;-61
2022/12/07 10:45:16;;;;;;;4.70;3.78;;;;;;;;;;10419147;28;20423;-60
2022/12/07 10:50:51;;;;;;;6.72;4.00;;;;;;;;;;10446575;28;20082;-60
2022/12/07 10:56:26;;;;;;;5.70;4.03;;;;;;;;;;10425282;28;20032;-62
2022/12/07 11:01:57;;;;;;;5.13;4.15;;;;;;;;;;10434000;28;20078;-61
2022/12/07 11:07:16;;;;;;;6.07;3.92;;;;;;;;;;10447570;28;20021;-61
2022/12/07 11:12:52;;;;;;;;;;;;;;;;;;10444323;28;20113;-61
2022/12/07 11:18:05;;;;;;;5.97;3.92;;;;;;;;;;10441753;28;19956;-61
2022/12/07 11:23:47;;;;;;;6.28;4.13;;;;;;;;;;10428180;28;20103;-61
2022/12/07 11:29:43;;;;;;;5.68;4.20;;;;;;;;;;10445190;28;20180;-60
2022/12/07 11:35:28;;;;;;;5.70;4.03;;;;;;;;;;10279929;28;20450;-61
2022/12/07 11:40:36;;;;;;;5.38;4.03;;;;;;;;;;10246395;28;20034;-61
2022/12/07 11:45:42;;;;;;;6.53;3.53;;;;;;;;;;10278997;28;20070;-60
2022/12/07 11:50:49;;;;;;;5.10;3.90;;;;;;;;;;10268340;28;20055;-61
2022/12/07 11:55:56;;;;;;;7.50;4.30;;;;;;;;;;10271708;28;20195;-60
2022/12/07 12:01:22;;;;;;;4.65;3.78;;;;;;;;;;10279439;28;20066;-60
2022/12/07 12:06:23;;;;;;;5.07;3.80;;;;;;;;;;10426908;28;20263;-60
2022/12/07 12:12:05;;;;;;;5.68;3.28;;;;;;;;;;10438355;28;20689;-60
2022/12/07 12:17:36;;;;;;;7.00;4.40;;;;;;;;;;10347420;28;20065;-60
2022/12/07 12:22:45;;;;;;;6.00;4.00;;;;;;;;;;10421649;28;20022;-61
2022/12/07 12:27:47;;;;;;;;;;;;;;;;;;10452939;28;20049;-61
2022/12/07 12:32:48;;;;;;;6.30;3.67;;;;;;;;;;10419432;28;20140;-60
2022/12/07 12:37:51;;;;;;;5.75;3.40;;;;;;;;;;10450072;28;20278;-61
2022/12/07 12:42:57;;;;;;;5.15;3.90;;;;;;;;;;10429013;28;20032;-61
2022/12/07 12:48:38;;;;;;;5.53;3.67;;;;;;;;;;10452132;28;20021;-61
2022/12/07 12:53:40;;;;;;;4.40;3.45;;;;;;;;;;10357259;28;20030;-60
2022/12/07 12:58:43;;;;;;;3.90;3.03;;;;;;;;;;10348425;28;20139;-61
2022/12/07 13:03:55;;;;;;;6.00;3.35;;;;;;;;;;10349790;28;20041;-60
2022/12/07 13:08:59;;;;;;;6.10;3.80;;;;;;;;;;10349438;28;20044;-61
2022/12/07 13:14:39;;;;;;;4.95;3.38;;;;;;;;;;10343865;28;20041;-62
2022/12/07 13:19:43;;;;;;;3.20;2.90;;;;;;;;;;10361495;28;20030;-60
2022/12/07 13:24:43;;;;;;;3.40;3.10;;;;;;;;;;10413126;28;20037;-59
2022/12/07 13:29:44;;;;;;;6.65;3.40;;;;;;;;;;10397823;28;20460;-59
2022/12/07 13:34:46;;;;;;;3.83;3.20;;;;;;;;;;10397431;28;20381;-60
2022/12/07 13:39:50;;;;;;;4.03;3.05;;;;;;;;;;10403121;28;20409;-61
2022/12/07 13:44:51;;;;;;;3.85;3.33;;;;;;;;;;10404376;28;20318;-61
2022/12/07 13:49:56;;;;;;;5.20;3.40;;;;;;;;;;10400217;28;20571;-59
2022/12/07 13:55:06;;;;;;;6.35;3.50;;;;;;;;;;10399858;28;20033;-61
2022/12/07 14:00:34;;;;;;;4.53;3.53;;;;;;;;;;10408459;28;20381;-61
2022/12/07 14:05:36;;;;;;;;;;;;;;;;;;10409189;28;20121;-60
2022/12/07 14:10:41;;;;;;;9.75;3.15;;;;;;;;;;10410547;28;19917;-60
2022/12/07 14:15:41;;;;;;;5.05;3.00;;;;;;;;;;10407144;28;20462;-58
2022/12/07 14:20:42;;;;;;;5.07;3.10;;;;;;;;;;10403757;28;20022;-60
2022/12/07 14:25:52;;;;;;;8.38;3.63;;;;;;;;;;10408762;28;20017;-59
2022/12/07 14:30:53;;;;;;;5.32;2.88;;;;;;;;;;10447769;28;20099;-59
2022/12/07 14:35:57;;;;;;;3.25;2.70;;;;;;;;;;10447923;28;20140;-59
2022/12/07 14:41:50;;;;;;;3.15;2.75;;;;;;;;;;10447695;28;20024;-59
2022/12/07 14:46:18;;;;;;;6.07;3.20;;;;;;;;;;10447809;28;20436;-59
2022/12/07 14:51:19;;;;;;;3.15;2.85;;;;;;;;;;10449683;28;20480;-60
2022/12/07 14:56:19;;;;;;;3.53;2.75;;;;;;;;;;10431691;28;20533;-59
2022/12/07 15:01:20;;;;;;;4.47;2.72;;;;;;;;;;10450016;28;20075;-58
2022/12/07 15:06:21;;;;;;;6.20;2.90;;;;;;;;;;10449269;28;20017;-59
2022/12/07 15:11:21;;;;;;;4.80;2.90;;;;;;;;;;10449184;28;20468;-59
2022/12/07 15:16:22;;;;;;;3.88;2.70;;;;;;;;;;10449063;28;20225;-59
2022/12/07 15:21:22;;;;;;;3.75;2.90;;;;;;;;;;10449133;28;20032;-59
2022/12/07 15:26:23;;;;;;;7.18;2.90;;;;;;;;;;10449681;28;20029;-59
2022/12/07 15:31:23;;;;;;;4.85;2.83;;;;;;;;;;10449067;28;20033;-59
2022/12/07 15:36:28;;;;;;;3.10;2.67;;;;;;;;;;10437890;28;20036;-59
2022/12/07 15:41:29;;;;;;;3.65;2.65;;;;;;;;;;10448674;28;20111;-60
2022/12/07 15:46:37;;;;;;;4.03;2.70;;;;;;;;;;10448335;28;20029;-59
2022/12/07 15:51:37;;;;;;;3.55;2.88;;;;;;;;;;10448087;28;20370;-62
2022/12/07 15:56:38;;;;;;;4.82;2.83;;;;;;;;;;10447280;28;20025;-60
2022/12/07 16:01:38;;;;;;;3.15;2.85;;;;;;;;;;10447732;28;20029;-59
2022/12/07 16:06:39;;;;;;;6.00;3.05;;;;;;;;;;10446722;28;20028;-59
2022/12/07 16:11:40;;;;;;;4.40;3.17;;;;;;;;;;10447098;28;20414;-60
2022/12/07 16:16:41;;;;;;;3.05;2.75;;;;;;;;;;10446075;28;20021;-62
2022/12/07 16:21:42;;;;;;;4.20;2.55;;;;;;;;;;10446663;28;20534;-62
2022/12/07 16:26:43;;;;;;;3.38;2.92;;;;;;;;;;10447665;28;20099;-60
2022/12/07 16:31:44;;;;;;;3.45;2.65;;;;;;;;;;10446066;28;20040;-62
2022/12/07 16:36:45;;;;;;;5.63;2.97;;;;;;;;;;10442096;28;20033;-61
2022/12/07 16:41:46;;;;;;;3.65;2.92;;;;;;;;;;10427515;28;20027;-60
2022/12/07 16:46:47;;;;;;;3.55;2.60;;;;;;;;;;10445839;28;20030;-60
2022/12/07 16:51:50;;;;;;;4.90;2.70;;;;;;;;;;10446299;28;20488;-60
2022/12/07 16:56:53;;;;;;;3.88;3.17;;;;;;;;;;10446342;28;20423;-60
2022/12/07 17:01:54;;;;;;;3.67;3.00;;;;;;;;;;10446475;28;20435;-60
2022/12/07 17:06:55;;;;;;;5.20;2.60;;;;;;;;;;10446975;28;20083;-60
2022/12/07 17:11:55;;;;;;;3.50;3.08;;;;;;;;;;10448029;28;20086;-60
2022/12/07 17:16:56;;;;;;;4.47;2.85;;;;;;;;;;10453948;28;20484;-59
2022/12/07 17:21:56;;;;;;;3.88;2.80;;;;;;;;;;10452920;28;20030;-60
2022/12/07 17:26:57;;;;;;;3.28;2.90;;;;;;;;;;10453206;28;20033;-60
2022/12/07 17:31:57;;;;;;;3.22;2.90;;;;;;;;;;10453589;28;20021;-59
2022/12/07 17:36:58;;;;;;;3.13;2.70;;;;;;;;;;10442781;28;20025;-59
2022/12/07 17:47:20;;;;;;;4.93;2.97;;;;;;;;;;10441231;28;20415;-59
2022/12/07 17:57:40;;;;;;;3.53;2.63;;;;;;;;;;10425968;28;20432;-60
2022/12/07 18:02:41;;;;;;;4.18;3.10;;;;;;;;;;10441468;28;20016;-60
2022/12/07 18:07:41;;;;;;;5.20;3.22;;;;;;;;;;10443029;28;20025;-60
2022/12/07 18:12:42;;;;;;;3.83;2.95;;;;;;;;;;10440798;28;20040;-60
2022/12/07 18:17:43;;;;;;;5.25;3.17;;;;;;;;;;10450451;28;20027;-60
2022/12/07 18:22:43;;;;;;;7.00;3.10;;;;;;;;;;10440892;28;20079;-60
2022/12/07 18:27:44;;;;;;;4.40;3.40;;;;;;;;;;10443276;28;20041;-59
2022/12/07 18:32:44;;;;;;;3.42;3.00;;;;;;;;;;10448669;28;20029;-60
2022/12/07 18:37:45;;;;;;;6.40;3.80;;;;;;;;;;10438519;28;20025;-60
2022/12/07 18:42:45;;;;;;;4.70;3.58;;;;;;;;;;10431565;28;20025;-59
2022/12/07 18:47:46;;;;;;;4.50;3.35;;;;;;;;;;10440548;28;20503;-60
2022/12/07 18:52:47;;;;;;;5.18;3.75;;;;;;;;;;10444468;28;20087;-60
2022/12/07 18:57:47;;;;;;;4.35;3.22;;;;;;;;;;10444963;28;20032;-59
2022/12/07 19:02:53;;;;;;;4.40;3.55;;;;;;;;;;10448939;28;20031;-60
2022/12/07 19:07:54;;;;;;;7.53;3.35;;;;;;;;;;10440311;28;20031;-59
2022/12/07 19:12:55;;;;;;;4.43;3.42;;;;;;;;;;10438813;28;20040;-59
2022/12/07 19:17:55;;;;;;;8.07;3.50;;;;;;;;;;10447637;28;20029;-59
2022/12/07 19:22:56;;;;;;;7.55;3.90;;;;;;;;;;10446985;28;20075;-60
2022/12/07 19:27:56;;;;;;;5.38;3.90;;;;;;;;;;10445160;28;20033;-59
2022/12/07 19:32:57;;;;;;;7.10;4.15;;;;;;;;;;10444398;28;20033;-60
2022/12/07 19:37:57;;;;;;;8.13;3.90;;;;;;;;;;10444581;28;20033;-59
2022/12/07 19:42:58;;;;;;;6.20;4.45;;;;;;;;;;10437069;28;20047;-60
2022/12/07 19:47:58;;;;;;;6.53;4.20;;;;;;;;;;10443397;28;20437;-59
2022/12/07 19:52:59;;;;;;;8.45;4.60;;;;;;;;;;10443041;28;20036;-59
2022/12/07 19:58:00;;;;;;;22.25;5.43;;;;;;;;;;10433985;28;20100;-57
2022/12/07 20:03:00;;;;;;;10.95;5.55;;;;;;;;;;10445958;28;20484;-58
2022/12/07 20:08:01;;;;;;;9.73;5.85;;;;;;;;;;10443058;28;20028;-58
2022/12/07 20:18:20;;;;;;;;;;;;;;;;;;10435560;28;20028;-58
2022/12/07 20:23:28;;;;;;;19.23;5.15;;;;;;;;;;10446028;28;19912;-59
2022/12/07 20:28:28;;;;;;;11.65;5.78;;;;;;;;;;10432426;28;20043;-59
2022/12/07 20:33:30;;;;;;;9.43;5.05;;;;;;;;;;10438823;28;20510;-59
2022/12/07 20:38:31;;;;;;;11.93;6.00;;;;;;;;;;10433264;28;20026;-58
2022/12/07 20:43:33;;;;;;;14.65;5.95;;;;;;;;;;10445392;28;20025;-57
2022/12/07 20:48:34;;;;;;;11.35;6.22;;;;;;;;;;10451300;28;20436;-57
2022/12/07 20:53:34;;;;;;;9.93;5.55;;;;;;;;;;10447610;28;20039;-59
2022/12/07 20:58:35;;;;;;;8.65;5.32;;;;;;;;;;10452036;28;20086;-58
2022/12/07 21:03:36;;;;;;;8.82;5.90;;;;;;;;;;10454402;28;20045;-63
2022/12/07 21:08:36;;;;;;;13.35;5.82;;;;;;;;;;10449737;28;20026;-63
2022/12/07 21:13:37;;;;;;;11.63;5.57;;;;;;;;;;10452605;28;20583;-61
2022/12/07 21:18:39;;;;;;;20.73;6.15;;;;;;;;;;10433066;28;20021;-60
2022/12/07 21:23:39;;;;;;;14.18;5.75;;;;;;;;;;10447377;28;20373;-59
2022/12/07 21:28:40;;;;;;;10.60;5.32;;;;;;;;;;10441650;28;20037;-60
2022/12/07 21:33:42;;;;;;;9.80;4.85;;;;;;;;;;10436445;28;20036;-59
2022/12/07 21:38:43;;;;;;;10.02;5.72;;;;;;;;;;10442308;28;20036;-61
2022/12/07 21:43:44;;;;;;;9.82;5.63;;;;;;;;;;10434301;28;20036;-62
2022/12/07 21:48:53;;;;;;;10.27;5.03;;;;;;;;;;10447948;28;20033;-61
2022/12/07 21:53:56;;;;;;;10.25;5.00;;;;;;;;;;10445041;28;20091;-60
2022/12/07 21:59:10;;;;;;;7.82;5.13;;;;;;;;;;10445707;28;20037;-62
2022/12/07 22:04:16;;;;;;;10.43;5.22;;;;;;;;;;10443838;28;20043;-61
2022/12/07 22:09:17;;;;;;;11.05;4.60;;;;;;;;;;10445672;28;20032;-62
2022/12/07 22:19:37;;;;;;;9.90;5.20;;;;;;;;;;10446098;28;20489;-62
2022/12/07 22:24:38;;;;;;;7.20;4.65;;;;;;;;;;10443211;28;20029;-62
2022/12/07 22:29:38;;;;;;;9.05;4.65;;;;;;;;;;10446472;28;20045;-62
2022/12/07 22:34:39;;;;;;;9.45;4.65;;;;;;;;;;10443741;28;20032;-62
2022/12/07 22:39:40;;;;;;;6.65;4.75;;;;;;;;;;10446405;28;20415;-61
2022/12/07 22:44:41;;;;;;;7.72;4.63;;;;;;;;;;10447672;28;20028;-64
2022/12/07 22:49:43;;;;;;;9.50;5.10;;;;;;;;;;10447356;28;20040;-61
2022/12/07 22:54:43;;;;;;;9.48;4.38;;;;;;;;;;10445566;28;20032;-62
2022/12/07 22:59:44;;;;;;;9.23;4.82;;;;;;;;;;10448174;28;20408;-61
2022/12/07 23:04:45;;;;;;;6.03;4.50;;;;;;;;;;10445772;28;20361;-60
2022/12/07 23:09:45;;;;;;;6.32;4.57;;;;;;;;;;10440917;28;20033;-61
2022/12/07 23:14:46;;;;;;;9.13;4.15;;;;;;;;;;10447082;28;20483;-60
2022/12/07 23:19:46;;;;;;;9.45;4.63;;;;;;;;;;10437086;28;20084;-62
2022/12/07 23:24:47;;;;;;;6.43;4.15;;;;;;;;;;10449657;28;20035;-62
2022/12/07 23:29:47;;;;;;;7.22;4.55;;;;;;;;;;10446040;28;20041;-62
2022/12/07 23:34:48;;;;;;;10.88;4.78;;;;;;;;;;10429608;28;20033;-62
2022/12/07 23:39:48;;;;;;;6.88;3.67;;;;;;;;;;10438663;28;20038;-62
2022/12/07 23:44:49;;;;;;;5.70;3.67;;;;;;;;;;10436837;28;20045;-62
2022/12/07 23:49:50;;;;;;;7.47;4.75;;;;;;;;;;10430684;28;20044;-61
2022/12/07 23:54:50;;;;;;;7.60;4.10;;;;;;;;;;10433701;28;20045;-62
2022/12/07 23:59:51;;;;;;;7.13;3.90;;;;;;;;;;10439857;28;20021;-61
